sensor_id;sensor_type;location;lat;lon;timestamp;P1;P2;P0
73973;PMS5003;62336;-26.094;27.994;2023-07-13T00:00:26;95;88;
73973;PMS5003;62336;-26.094;27.994;2023-07-13T00:02:52;89;84;
73973;PMS5003;62336;-26.094;27.994;2023-07-13T00:05:17;80;76;
73973;PMS5003;62336;-26.094;27.994;2023-07-13T00:07:42;80;78;
73973;PMS5003;62336;-26.094;27.994;2023-07-13T00:10:08;83;79;
73973;PMS5003;62336;-26.094;27.994;2023-07-13T00:12:34;84;78;
73973;PMS5003;62336;-26.094;27.994;2023-07-13T00:15:00;86;79;
73973;PMS5003;62336;-26.094;27.994;2023-07-13T00:17:24;79;74;
73973;PMS5003;62336;-26.094;27.994;2023-07-13T00:19:50;87;79;
73973;PMS5003;62336;-26.094;27.994;2023-07-13T00:22:15;78;72;
73973;PMS5003;62336;-26.094;27.994;2023-07-13T00:24:40;74;71;
73973;PMS5003;62336;-26.094;27.994;2023-07-13T00:27:06;77;75;
73973;PMS5003;62336;-26.094;27.994;2023-07-13T00:29:32;74;70;
73973;PMS5003;62336;-26.094;27.994;2023-07-13T00:31:57;68;63;
73973;PMS5003;62336;-26.094;27.994;2023-07-13T00:34:23;71;66;
73973;PMS5003;62336;-26.094;27.994;2023-07-13T00:36:47;75;69;
73973;PMS5003;62336;-26.094;27.994;2023-07-13T00:39:13;64;62;
73973;PMS5003;62336;-26.094;27.994;2023-07-13T00:41:38;68;67;
73973;PMS5003;62336;-26.094;27.994;2023-07-13T00:44:04;66;63;
73973;PMS5003;62336;-26.094;27.994;2023-07-13T00:46:30;63;61;
73973;PMS5003;62336;-26.094;27.994;2023-07-13T00:48:56;68;62;
73973;PMS5003;62336;-26.094;27.994;2023-07-13T00:51:24;67;64;
73973;PMS5003;62336;-26.094;27.994;2023-07-13T00:53:46;57;56;
73973;PMS5003;62336;-26.094;27.994;2023-07-13T00:56:12;66;61;
73973;PMS5003;62336;-26.094;27.994;2023-07-13T00:58:37;63;61;
73973;PMS5003;62336;-26.094;27.994;2023-07-13T01:01:02;59;57;
73973;PMS5003;62336;-26.094;27.994;2023-07-13T01:03:27;71;65;
73973;PMS5003;62336;-26.094;27.994;2023-07-13T01:05:53;64;62;
73973;PMS5003;62336;-26.094;27.994;2023-07-13T01:08:18;64;61;
73973;PMS5003;62336;-26.094;27.994;2023-07-13T01:13:10;64;62;
73973;PMS5003;62336;-26.094;27.994;2023-07-13T01:15:36;62;58;
73973;PMS5003;62336;-26.094;27.994;2023-07-13T01:18:01;67;61;
73973;PMS5003;62336;-26.094;27.994;2023-07-13T01:20:26;56;54;
73973;PMS5003;62336;-26.094;27.994;2023-07-13T01:22:52;61;56;
73973;PMS5003;62336;-26.094;27.994;2023-07-13T01:25:17;59;57;
73973;PMS5003;62336;-26.094;27.994;2023-07-13T01:27:43;64;59;
73973;PMS5003;62336;-26.094;27.994;2023-07-13T01:30:09;59;55;
73973;PMS5003;62336;-26.094;27.994;2023-07-13T01:32:34;54;53;
73973;PMS5003;62336;-26.094;27.994;2023-07-13T01:35:00;48;47;
73973;PMS5003;62336;-26.094;27.994;2023-07-13T01:37:25;61;59;
73973;PMS5003;62336;-26.094;27.994;2023-07-13T01:39:51;53;51;
73973;PMS5003;62336;-26.094;27.994;2023-07-13T01:42:17;49;46;
73973;PMS5003;62336;-26.094;27.994;2023-07-13T01:44:42;45;44;
73973;PMS5003;62336;-26.094;27.994;2023-07-13T01:47:09;48;42;
73973;PMS5003;62336;-26.094;27.994;2023-07-13T01:49:33;51;49;
73973;PMS5003;62336;-26.094;27.994;2023-07-13T01:51:58;48;47;
73973;PMS5003;62336;-26.094;27.994;2023-07-13T01:54:24;49;48;
73973;PMS5003;62336;-26.094;27.994;2023-07-13T01:56:49;46;43;
73973;PMS5003;62336;-26.094;27.994;2023-07-13T01:59:15;43;41;
73973;PMS5003;62336;-26.094;27.994;2023-07-13T02:01:40;47;43;
73973;PMS5003;62336;-26.094;27.994;2023-07-13T02:04:06;43;41;
73973;PMS5003;62336;-26.094;27.994;2023-07-13T02:06:31;43;40;
73973;PMS5003;62336;-26.094;27.994;2023-07-13T02:08:57;48;43;
73973;PMS5003;62336;-26.094;27.994;2023-07-13T02:11:23;44;42;
73973;PMS5003;62336;-26.094;27.994;2023-07-13T02:13:48;40;39;
73973;PMS5003;62336;-26.094;27.994;2023-07-13T02:16:14;40;38;
73973;PMS5003;62336;-26.094;27.994;2023-07-13T02:18:39;44;43;
73973;PMS5003;62336;-26.094;27.994;2023-07-13T02:21:05;41;41;
73973;PMS5003;62336;-26.094;27.994;2023-07-13T02:23:30;42;39;
73973;PMS5003;62336;-26.094;27.994;2023-07-13T02:25:55;40;37;
73973;PMS5003;62336;-26.094;27.994;2023-07-13T02:28:21;36;33;
73973;PMS5003;62336;-26.094;27.994;2023-07-13T02:30:46;39;33;
73973;PMS5003;62336;-26.094;27.994;2023-07-13T02:33:11;39;37;
73973;PMS5003;62336;-26.094;27.994;2023-07-13T02:35:38;37;37;
73973;PMS5003;62336;-26.094;27.994;2023-07-13T02:38:02;42;41;
73973;PMS5003;62336;-26.094;27.994;2023-07-13T02:40:28;36;35;
73973;PMS5003;62336;-26.094;27.994;2023-07-13T02:42:54;34;34;
73973;PMS5003;62336;-26.094;27.994;2023-07-13T02:45:19;41;38;
73973;PMS5003;62336;-26.094;27.994;2023-07-13T02:47:45;39;36;
73973;PMS5003;62336;-26.094;27.994;2023-07-13T02:50:10;44;41;
73973;PMS5003;62336;-26.094;27.994;2023-07-13T02:52:35;45;43;
73973;PMS5003;62336;-26.094;27.994;2023-07-13T02:55:00;37;37;
73973;PMS5003;62336;-26.094;27.994;2023-07-13T02:57:26;40;40;
73973;PMS5003;62336;-26.094;27.994;2023-07-13T02:59:52;39;37;
73973;PMS5003;62336;-26.094;27.994;2023-07-13T03:02:17;38;37;
73973;PMS5003;62336;-26.094;27.994;2023-07-13T03:04:43;44;42;
73973;PMS5003;62336;-26.094;27.994;2023-07-13T03:07:08;43;41;
73973;PMS5003;62336;-26.094;27.994;2023-07-13T03:09:34;39;38;
73973;PMS5003;62336;-26.094;27.994;2023-07-13T03:11:59;43;40;
73973;PMS5003;62336;-26.094;27.994;2023-07-13T03:14:24;40;40;
73973;PMS5003;62336;-26.094;27.994;2023-07-13T03:16:50;38;35;
73973;PMS5003;62336;-26.094;27.994;2023-07-13T03:19:16;41;40;
73973;PMS5003;62336;-26.094;27.994;2023-07-13T03:21:42;42;39;
73973;PMS5003;62336;-26.094;27.994;2023-07-13T03:24:08;38;37;
73973;PMS5003;62336;-26.094;27.994;2023-07-13T03:26:33;39;37;
73973;PMS5003;62336;-26.094;27.994;2023-07-13T03:28:58;39;39;
73973;PMS5003;62336;-26.094;27.994;2023-07-13T03:31:25;45;43;
73973;PMS5003;62336;-26.094;27.994;2023-07-13T03:33:49;44;43;
73973;PMS5003;62336;-26.094;27.994;2023-07-13T03:36:16;39;38;
73973;PMS5003;62336;-26.094;27.994;2023-07-13T03:38:39;45;43;
73973;PMS5003;62336;-26.094;27.994;2023-07-13T03:41:05;43;40;
73973;PMS5003;62336;-26.094;27.994;2023-07-13T03:43:30;41;39;
73973;PMS5003;62336;-26.094;27.994;2023-07-13T03:45:56;46;44;
73973;PMS5003;62336;-26.094;27.994;2023-07-13T03:48:22;43;39;
73973;PMS5003;62336;-26.094;27.994;2023-07-13T03:50:47;38;37;
73973;PMS5003;62336;-26.094;27.994;2023-07-13T03:53:13;46;44;
73973;PMS5003;62336;-26.094;27.994;2023-07-13T03:55:38;39;39;
73973;PMS5003;62336;-26.094;27.994;2023-07-13T04:00:30;42;42;
73973;PMS5003;62336;-26.094;27.994;2023-07-13T04:02:55;44;41;
73973;PMS5003;62336;-26.094;27.994;2023-07-13T04:05:20;44;42;
73973;PMS5003;62336;-26.094;27.994;2023-07-13T04:07:46;43;42;
73973;PMS5003;62336;-26.094;27.994;2023-07-13T04:10:11;43;40;
73973;PMS5003;62336;-26.094;27.994;2023-07-13T04:12:37;44;42;
73973;PMS5003;62336;-26.094;27.994;2023-07-13T04:15:02;45;42;
73973;PMS5003;62336;-26.094;27.994;2023-07-13T04:17:28;39;39;
73973;PMS5003;62336;-26.094;27.994;2023-07-13T04:19:53;40;39;
73973;PMS5003;62336;-26.094;27.994;2023-07-13T04:22:18;44;40;
73973;PMS5003;62336;-26.094;27.994;2023-07-13T04:24:44;44;43;
73973;PMS5003;62336;-26.094;27.994;2023-07-13T04:27:09;44;41;
73973;PMS5003;62336;-26.094;27.994;2023-07-13T04:29:34;47;43;
73973;PMS5003;62336;-26.094;27.994;2023-07-13T04:31:59;49;45;
73973;PMS5003;62336;-26.094;27.994;2023-07-13T04:34:25;47;44;
73973;PMS5003;62336;-26.094;27.994;2023-07-13T04:36:51;46;43;
73973;PMS5003;62336;-26.094;27.994;2023-07-13T04:39:16;45;41;
73973;PMS5003;62336;-26.094;27.994;2023-07-13T04:41:41;44;42;
73973;PMS5003;62336;-26.094;27.994;2023-07-13T04:44:06;45;42;
73973;PMS5003;62336;-26.094;27.994;2023-07-13T04:46:31;50;43;
73973;PMS5003;62336;-26.094;27.994;2023-07-13T04:48:57;43;41;
73973;PMS5003;62336;-26.094;27.994;2023-07-13T04:51:22;49;47;
73973;PMS5003;62336;-26.094;27.994;2023-07-13T04:53:48;47;46;
73973;PMS5003;62336;-26.094;27.994;2023-07-13T04:56:13;51;48;
73973;PMS5003;62336;-26.094;27.994;2023-07-13T04:58:39;48;47;
73973;PMS5003;62336;-26.094;27.994;2023-07-13T05:01:05;50;50;
73973;PMS5003;62336;-26.094;27.994;2023-07-13T05:03:30;47;47;
73973;PMS5003;62336;-26.094;27.994;2023-07-13T05:05:57;52;45;
73973;PMS5003;62336;-26.094;27.994;2023-07-13T05:08:20;47;45;
73973;PMS5003;62336;-26.094;27.994;2023-07-13T05:10:46;46;45;
73973;PMS5003;62336;-26.094;27.994;2023-07-13T05:13:12;50;49;
73973;PMS5003;62336;-26.094;27.994;2023-07-13T05:15:37;52;50;
73973;PMS5003;62336;-26.094;27.994;2023-07-13T05:18:03;53;50;
73973;PMS5003;62336;-26.094;27.994;2023-07-13T05:20:29;57;54;
73973;PMS5003;62336;-26.094;27.994;2023-07-13T05:22:54;51;50;
73973;PMS5003;62336;-26.094;27.994;2023-07-13T05:25:20;58;52;
73973;PMS5003;62336;-26.094;27.994;2023-07-13T05:27:45;52;49;
73973;PMS5003;62336;-26.094;27.994;2023-07-13T05:30:10;50;49;
73973;PMS5003;62336;-26.094;27.994;2023-07-13T05:32:36;50;48;
73973;PMS5003;62336;-26.094;27.994;2023-07-13T05:35:01;60;52;
73973;PMS5003;62336;-26.094;27.994;2023-07-13T05:37:27;54;54;
73973;PMS5003;62336;-26.094;27.994;2023-07-13T05:39:52;57;52;
73973;PMS5003;62336;-26.094;27.994;2023-07-13T05:42:18;57;56;
73973;PMS5003;62336;-26.094;27.994;2023-07-13T05:44:43;58;53;
73973;PMS5003;62336;-26.094;27.994;2023-07-13T05:47:09;53;49;
73973;PMS5003;62336;-26.094;27.994;2023-07-13T05:49:35;55;51;
73973;PMS5003;62336;-26.094;27.994;2023-07-13T05:52:00;54;53;
73973;PMS5003;62336;-26.094;27.994;2023-07-13T05:54:26;58;56;
73973;PMS5003;62336;-26.094;27.994;2023-07-13T05:56:51;51;49;
73973;PMS5003;62336;-26.094;27.994;2023-07-13T05:59:17;50;49;
73973;PMS5003;62336;-26.094;27.994;2023-07-13T06:01:42;52;52;
73973;PMS5003;62336;-26.094;27.994;2023-07-13T06:04:08;55;49;
73973;PMS5003;62336;-26.094;27.994;2023-07-13T06:06:34;50;48;
73973;PMS5003;62336;-26.094;27.994;2023-07-13T06:08:59;57;53;
73973;PMS5003;62336;-26.094;27.994;2023-07-13T06:11:25;50;46;
73973;PMS5003;62336;-26.094;27.994;2023-07-13T06:13:50;47;43;
73973;PMS5003;62336;-26.094;27.994;2023-07-13T06:16:16;48;47;
73973;PMS5003;62336;-26.094;27.994;2023-07-13T06:18:41;40;39;
73973;PMS5003;62336;-26.094;27.994;2023-07-13T06:21:07;30;29;
73973;PMS5003;62336;-26.094;27.994;2023-07-13T06:23:31;37;36;
73973;PMS5003;62336;-26.094;27.994;2023-07-13T06:25:57;32;30;
73973;PMS5003;62336;-26.094;27.994;2023-07-13T06:28:23;31;31;
73973;PMS5003;62336;-26.094;27.994;2023-07-13T06:30:48;25;23;
73973;PMS5003;62336;-26.094;27.994;2023-07-13T06:33:14;19;17;
73973;PMS5003;62336;-26.094;27.994;2023-07-13T06:35:39;26;24;
73973;PMS5003;62336;-26.094;27.994;2023-07-13T06:38:05;18;18;
73973;PMS5003;62336;-26.094;27.994;2023-07-13T06:40:30;17;15;
73973;PMS5003;62336;-26.094;27.994;2023-07-13T06:42:55;13;13;
73973;PMS5003;62336;-26.094;27.994;2023-07-13T06:45:21;15;15;
73973;PMS5003;62336;-26.094;27.994;2023-07-13T06:47:46;15;14;
73973;PMS5003;62336;-26.094;27.994;2023-07-13T06:50:11;16;15;
73973;PMS5003;62336;-26.094;27.994;2023-07-13T06:52:37;17;16;
73973;PMS5003;62336;-26.094;27.994;2023-07-13T06:55:02;22;19;
73973;PMS5003;62336;-26.094;27.994;2023-07-13T06:57:27;20;19;
73973;PMS5003;62336;-26.094;27.994;2023-07-13T06:59:53;30;25;
73973;PMS5003;62336;-26.094;27.994;2023-07-13T07:02:18;20;18;
73973;PMS5003;62336;-26.094;27.994;2023-07-13T07:04:43;20;19;
73973;PMS5003;62336;-26.094;27.994;2023-07-13T07:07:08;18;16;
73973;PMS5003;62336;-26.094;27.994;2023-07-13T07:09:33;20;20;
73973;PMS5003;62336;-26.094;27.994;2023-07-13T07:11:58;18;18;
73973;PMS5003;62336;-26.094;27.994;2023-07-13T07:14:24;24;22;
73973;PMS5003;62336;-26.094;27.994;2023-07-13T07:16:49;19;19;
73973;PMS5003;62336;-26.094;27.994;2023-07-13T07:19:14;20;19;
73973;PMS5003;62336;-26.094;27.994;2023-07-13T07:21:40;20;18;
73973;PMS5003;62336;-26.094;27.994;2023-07-13T07:24:06;18;18;
73973;PMS5003;62336;-26.094;27.994;2023-07-13T07:26:31;22;21;
73973;PMS5003;62336;-26.094;27.994;2023-07-13T07:28:57;20;18;
73973;PMS5003;62336;-26.094;27.994;2023-07-13T07:31:22;19;19;
73973;PMS5003;62336;-26.094;27.994;2023-07-13T07:33:48;23;22;
73973;PMS5003;62336;-26.094;27.994;2023-07-13T07:36:13;19;19;
73973;PMS5003;62336;-26.094;27.994;2023-07-13T07:38:39;18;18;
73973;PMS5003;62336;-26.094;27.994;2023-07-13T07:41:05;25;21;
73973;PMS5003;62336;-26.094;27.994;2023-07-13T07:43:30;19;19;
73973;PMS5003;62336;-26.094;27.994;2023-07-13T07:45:55;21;20;
73973;PMS5003;62336;-26.094;27.994;2023-07-13T07:48:21;20;19;
73973;PMS5003;62336;-26.094;27.994;2023-07-13T07:50:46;19;19;
73973;PMS5003;62336;-26.094;27.994;2023-07-13T07:53:11;23;22;
73973;PMS5003;62336;-26.094;27.994;2023-07-13T07:55:36;21;21;
73973;PMS5003;62336;-26.094;27.994;2023-07-13T07:58:01;19;19;
73973;PMS5003;62336;-26.094;27.994;2023-07-13T08:00:27;22;22;
73973;PMS5003;62336;-26.094;27.994;2023-07-13T08:02:53;24;22;
73973;PMS5003;62336;-26.094;27.994;2023-07-13T08:05:18;21;20;
73973;PMS5003;62336;-26.094;27.994;2023-07-13T08:07:44;21;21;
73973;PMS5003;62336;-26.094;27.994;2023-07-13T08:10:09;26;25;
73973;PMS5003;62336;-26.094;27.994;2023-07-13T08:12:35;24;24;
73973;PMS5003;62336;-26.094;27.994;2023-07-13T08:15:00;25;24;
73973;PMS5003;62336;-26.094;27.994;2023-07-13T08:17:26;25;24;
73973;PMS5003;62336;-26.094;27.994;2023-07-13T08:19:52;25;24;
73973;PMS5003;62336;-26.094;27.994;2023-07-13T08:22:17;25;25;
73973;PMS5003;62336;-26.094;27.994;2023-07-13T08:24:42;26;24;
73973;PMS5003;62336;-26.094;27.994;2023-07-13T08:27:08;29;28;
73973;PMS5003;62336;-26.094;27.994;2023-07-13T08:29:33;28;27;
73973;PMS5003;62336;-26.094;27.994;2023-07-13T08:31:58;28;27;
73973;PMS5003;62336;-26.094;27.994;2023-07-13T08:34:24;28;26;
73973;PMS5003;62336;-26.094;27.994;2023-07-13T08:36:49;23;23;
73973;PMS5003;62336;-26.094;27.994;2023-07-13T08:39:15;29;27;
73973;PMS5003;62336;-26.094;27.994;2023-07-13T08:41:41;28;27;
73973;PMS5003;62336;-26.094;27.994;2023-07-13T08:44:07;29;27;
73973;PMS5003;62336;-26.094;27.994;2023-07-13T08:46:33;27;25;
73973;PMS5003;62336;-26.094;27.994;2023-07-13T08:48:58;28;27;
73973;PMS5003;62336;-26.094;27.994;2023-07-13T08:51:26;30;28;
73973;PMS5003;62336;-26.094;27.994;2023-07-13T08:53:49;32;32;
73973;PMS5003;62336;-26.094;27.994;2023-07-13T08:56:15;27;27;
73973;PMS5003;62336;-26.094;27.994;2023-07-13T08:58:39;28;26;
73973;PMS5003;62336;-26.094;27.994;2023-07-13T09:01:06;27;27;
73973;PMS5003;62336;-26.094;27.994;2023-07-13T09:03:30;28;28;
73973;PMS5003;62336;-26.094;27.994;2023-07-13T09:05:56;30;28;
73973;PMS5003;62336;-26.094;27.994;2023-07-13T09:10:47;30;29;
73973;PMS5003;62336;-26.094;27.994;2023-07-13T09:13:16;35;35;
73973;PMS5003;62336;-26.094;27.994;2023-07-13T09:15:38;31;30;
73973;PMS5003;62336;-26.094;27.994;2023-07-13T09:18:03;33;33;
73973;PMS5003;62336;-26.094;27.994;2023-07-13T09:20:30;34;31;
73973;PMS5003;62336;-26.094;27.994;2023-07-13T09:22:53;36;35;
73973;PMS5003;62336;-26.094;27.994;2023-07-13T09:25:24;37;36;
73973;PMS5003;62336;-26.094;27.994;2023-07-13T09:27:45;32;31;
73973;PMS5003;62336;-26.094;27.994;2023-07-13T09:30:20;37;36;
73973;PMS5003;62336;-26.094;27.994;2023-07-13T09:32:35;35;35;
73973;PMS5003;62336;-26.094;27.994;2023-07-13T09:35:01;47;39;
73973;PMS5003;62336;-26.094;27.994;2023-07-13T09:37:28;39;39;
73973;PMS5003;62336;-26.094;27.994;2023-07-13T09:39:52;41;40;
73973;PMS5003;62336;-26.094;27.994;2023-07-13T09:42:17;39;39;
73973;PMS5003;62336;-26.094;27.994;2023-07-13T09:44:50;43;43;
73973;PMS5003;62336;-26.094;27.994;2023-07-13T09:49:35;51;47;
73973;PMS5003;62336;-26.094;27.994;2023-07-13T09:52:00;38;35;
73973;PMS5003;62336;-26.094;27.994;2023-07-13T09:54:25;42;40;
73973;PMS5003;62336;-26.094;27.994;2023-07-13T09:56:54;51;45;
73973;PMS5003;62336;-26.094;27.994;2023-07-13T09:59:19;41;39;
73973;PMS5003;62336;-26.094;27.994;2023-07-13T10:01:41;43;41;
73973;PMS5003;62336;-26.094;27.994;2023-07-13T10:04:11;52;48;
73973;PMS5003;62336;-26.094;27.994;2023-07-13T10:06:33;48;46;
73973;PMS5003;62336;-26.094;27.994;2023-07-13T10:08:58;49;46;
73973;PMS5003;62336;-26.094;27.994;2023-07-13T10:11:26;44;41;
73973;PMS5003;62336;-26.094;27.994;2023-07-13T10:13:50;49;45;
73973;PMS5003;62336;-26.094;27.994;2023-07-13T10:16:15;46;44;
73973;PMS5003;62336;-26.094;27.994;2023-07-13T10:18:43;47;45;
73973;PMS5003;62336;-26.094;27.994;2023-07-13T10:21:12;43;43;
73973;PMS5003;62336;-26.094;27.994;2023-07-13T10:23:31;51;44;
73973;PMS5003;62336;-26.094;27.994;2023-07-13T10:25:56;45;42;
73973;PMS5003;62336;-26.094;27.994;2023-07-13T10:28:25;45;43;
73973;PMS5003;62336;-26.094;27.994;2023-07-13T10:30:47;48;39;
73973;PMS5003;62336;-26.094;27.994;2023-07-13T10:33:13;51;43;
73973;PMS5003;62336;-26.094;27.994;2023-07-13T10:35:38;53;50;
73973;PMS5003;62336;-26.094;27.994;2023-07-13T10:38:04;58;52;
73973;PMS5003;62336;-26.094;27.994;2023-07-13T10:40:31;52;50;
73973;PMS5003;62336;-26.094;27.994;2023-07-13T10:42:55;57;55;
73973;PMS5003;62336;-26.094;27.994;2023-07-13T10:45:21;52;50;
73973;PMS5003;62336;-26.094;27.994;2023-07-13T10:47:45;53;50;
73973;PMS5003;62336;-26.094;27.994;2023-07-13T10:50:15;54;51;
73973;PMS5003;62336;-26.094;27.994;2023-07-13T10:52:40;48;45;
73973;PMS5003;62336;-26.094;27.994;2023-07-13T10:55:02;60;51;
73973;PMS5003;62336;-26.094;27.994;2023-07-13T10:57:27;52;49;
73973;PMS5003;62336;-26.094;27.994;2023-07-13T11:02:22;57;54;
73973;PMS5003;62336;-26.094;27.994;2023-07-13T11:04:44;48;45;
73973;PMS5003;62336;-26.094;27.994;2023-07-13T11:07:10;48;47;
73973;PMS5003;62336;-26.094;27.994;2023-07-13T11:09:36;46;43;
73973;PMS5003;62336;-26.094;27.994;2023-07-13T11:12:00;47;43;
73973;PMS5003;62336;-26.094;27.994;2023-07-13T11:14:29;47;45;
73973;PMS5003;62336;-26.094;27.994;2023-07-13T11:16:50;49;45;
73973;PMS5003;62336;-26.094;27.994;2023-07-13T11:19:26;54;46;
73973;PMS5003;62336;-26.094;27.994;2023-07-13T11:21:52;49;46;
73973;PMS5003;62336;-26.094;27.994;2023-07-13T11:26:39;48;47;
73973;PMS5003;62336;-26.094;27.994;2023-07-13T11:28:58;51;48;
73973;PMS5003;62336;-26.094;27.994;2023-07-13T11:31:24;45;42;
73973;PMS5003;62336;-26.094;27.994;2023-07-13T11:33:51;47;44;
73973;PMS5003;62336;-26.094;27.994;2023-07-13T11:36:15;42;40;
73973;PMS5003;62336;-26.094;27.994;2023-07-13T11:38:40;39;36;
73973;PMS5003;62336;-26.094;27.994;2023-07-13T11:41:06;39;38;
73973;PMS5003;62336;-26.094;27.994;2023-07-13T11:43:30;40;38;
73973;PMS5003;62336;-26.094;27.994;2023-07-13T11:45:56;38;38;
73973;PMS5003;62336;-26.094;27.994;2023-07-13T11:48:22;42;40;
73973;PMS5003;62336;-26.094;27.994;2023-07-13T11:50:49;39;38;
73973;PMS5003;62336;-26.094;27.994;2023-07-13T11:53:13;40;39;
73973;PMS5003;62336;-26.094;27.994;2023-07-13T11:55:38;38;35;
73973;PMS5003;62336;-26.094;27.994;2023-07-13T11:58:04;40;39;
73973;PMS5003;62336;-26.094;27.994;2023-07-13T12:00:30;50;47;
73973;PMS5003;62336;-26.094;27.994;2023-07-13T12:02:56;44;44;
73973;PMS5003;62336;-26.094;27.994;2023-07-13T12:05:20;40;38;
73973;PMS5003;62336;-26.094;27.994;2023-07-13T12:07:46;44;41;
73973;PMS5003;62336;-26.094;27.994;2023-07-13T12:10:16;42;42;
73973;PMS5003;62336;-26.094;27.994;2023-07-13T12:12:36;45;44;
73973;PMS5003;62336;-26.094;27.994;2023-07-13T12:15:05;46;44;
73973;PMS5003;62336;-26.094;27.994;2023-07-13T12:17:27;50;43;
73973;PMS5003;62336;-26.094;27.994;2023-07-13T12:19:53;47;44;
73973;PMS5003;62336;-26.094;27.994;2023-07-13T12:22:19;39;37;
73973;PMS5003;62336;-26.094;27.994;2023-07-13T12:24:43;49;46;
73973;PMS5003;62336;-26.094;27.994;2023-07-13T12:29:35;50;46;
73973;PMS5003;62336;-26.094;27.994;2023-07-13T12:32:00;45;45;
73973;PMS5003;62336;-26.094;27.994;2023-07-13T12:34:26;50;49;
73973;PMS5003;62336;-26.094;27.994;2023-07-13T12:36:54;56;53;
73973;PMS5003;62336;-26.094;27.994;2023-07-13T12:39:17;60;55;
73973;PMS5003;62336;-26.094;27.994;2023-07-13T12:41:41;56;54;
73973;PMS5003;62336;-26.094;27.994;2023-07-13T12:44:09;53;51;
73973;PMS5003;62336;-26.094;27.994;2023-07-13T12:46:32;60;56;
73973;PMS5003;62336;-26.094;27.994;2023-07-13T12:48:57;59;54;
73973;PMS5003;62336;-26.094;27.994;2023-07-13T12:51:24;58;55;
73973;PMS5003;62336;-26.094;27.994;2023-07-13T12:53:50;58;57;
73973;PMS5003;62336;-26.094;27.994;2023-07-13T12:56:16;66;60;
73973;PMS5003;62336;-26.094;27.994;2023-07-13T12:58:41;62;58;
73973;PMS5003;62336;-26.094;27.994;2023-07-13T13:01:07;58;52;
73973;PMS5003;62336;-26.094;27.994;2023-07-13T13:03:32;48;48;
73973;PMS5003;62336;-26.094;27.994;2023-07-13T13:05:58;52;50;
73973;PMS5003;62336;-26.094;27.994;2023-07-13T13:08:23;54;50;
73973;PMS5003;62336;-26.094;27.994;2023-07-13T13:10:48;50;48;
73973;PMS5003;62336;-26.094;27.994;2023-07-13T13:13:13;46;43;
73973;PMS5003;62336;-26.094;27.994;2023-07-13T13:15:38;35;33;
73973;PMS5003;62336;-26.094;27.994;2023-07-13T13:18:08;35;33;
73973;PMS5003;62336;-26.094;27.994;2023-07-13T13:20:30;36;31;
73973;PMS5003;62336;-26.094;27.994;2023-07-13T13:22:55;36;34;
73973;PMS5003;62336;-26.094;27.994;2023-07-13T13:25:20;28;28;
73973;PMS5003;62336;-26.094;27.994;2023-07-13T13:27:46;33;32;
73973;PMS5003;62336;-26.094;27.994;2023-07-13T13:30:13;28;26;
73973;PMS5003;62336;-26.094;27.994;2023-07-13T13:32:37;29;29;
73973;PMS5003;62336;-26.094;27.994;2023-07-13T13:35:02;31;29;
73973;PMS5003;62336;-26.094;27.994;2023-07-13T13:37:27;33;32;
73973;PMS5003;62336;-26.094;27.994;2023-07-13T13:39:53;35;30;
73973;PMS5003;62336;-26.094;27.994;2023-07-13T13:42:18;34;30;
73973;PMS5003;62336;-26.094;27.994;2023-07-13T13:44:44;30;27;
73973;PMS5003;62336;-26.094;27.994;2023-07-13T13:47:17;27;26;
73973;PMS5003;62336;-26.094;27.994;2023-07-13T13:49:35;43;40;
73973;PMS5003;62336;-26.094;27.994;2023-07-13T13:52:00;40;37;
73973;PMS5003;62336;-26.094;27.994;2023-07-13T13:54:25;26;25;
73973;PMS5003;62336;-26.094;27.994;2023-07-13T13:56:51;24;24;
73973;PMS5003;62336;-26.094;27.994;2023-07-13T13:59:16;23;21;
73973;PMS5003;62336;-26.094;27.994;2023-07-13T14:01:42;24;24;
73973;PMS5003;62336;-26.094;27.994;2023-07-13T14:04:09;21;21;
73973;PMS5003;62336;-26.094;27.994;2023-07-13T14:06:33;21;21;
73973;PMS5003;62336;-26.094;27.994;2023-07-13T14:08:59;18;18;
73973;PMS5003;62336;-26.094;27.994;2023-07-13T14:11:24;20;18;
73973;PMS5003;62336;-26.094;27.994;2023-07-13T14:13:51;21;20;
73973;PMS5003;62336;-26.094;27.994;2023-07-13T14:16:15;17;17;
73973;PMS5003;62336;-26.094;27.994;2023-07-13T14:18:40;17;17;
73973;PMS5003;62336;-26.094;27.994;2023-07-13T14:21:10;15;15;
73973;PMS5003;62336;-26.094;27.994;2023-07-13T14:23:30;15;15;
73973;PMS5003;62336;-26.094;27.994;2023-07-13T14:25:55;17;16;
73973;PMS5003;62336;-26.094;27.994;2023-07-13T14:28:22;21;18;
73973;PMS5003;62336;-26.094;27.994;2023-07-13T14:30:47;18;18;
73973;PMS5003;62336;-26.094;27.994;2023-07-13T14:33:11;18;18;
73973;PMS5003;62336;-26.094;27.994;2023-07-13T14:35:37;16;14;
73973;PMS5003;62336;-26.094;27.994;2023-07-13T14:38:02;13;13;
73973;PMS5003;62336;-26.094;27.994;2023-07-13T14:40:29;15;15;
73973;PMS5003;62336;-26.094;27.994;2023-07-13T14:42:53;14;13;
73973;PMS5003;62336;-26.094;27.994;2023-07-13T14:45:18;14;13;
73973;PMS5003;62336;-26.094;27.994;2023-07-13T14:47:43;18;16;
73973;PMS5003;62336;-26.094;27.994;2023-07-13T14:50:12;16;15;
73973;PMS5003;62336;-26.094;27.994;2023-07-13T14:52:33;17;17;
73973;PMS5003;62336;-26.094;27.994;2023-07-13T14:54:59;15;15;
73973;PMS5003;62336;-26.094;27.994;2023-07-13T14:57:25;14;14;
73973;PMS5003;62336;-26.094;27.994;2023-07-13T14:59:50;18;18;
73973;PMS5003;62336;-26.094;27.994;2023-07-13T15:02:16;19;17;
73973;PMS5003;62336;-26.094;27.994;2023-07-13T15:04:41;22;19;
73973;PMS5003;62336;-26.094;27.994;2023-07-13T15:07:07;22;19;
73973;PMS5003;62336;-26.094;27.994;2023-07-13T15:09:32;18;17;
73973;PMS5003;62336;-26.094;27.994;2023-07-13T15:11:58;21;19;
73973;PMS5003;62336;-26.094;27.994;2023-07-13T15:16:49;17;16;
73973;PMS5003;62336;-26.094;27.994;2023-07-13T15:19:14;15;15;
73973;PMS5003;62336;-26.094;27.994;2023-07-13T15:21:39;18;18;
73973;PMS5003;62336;-26.094;27.994;2023-07-13T15:24:04;18;16;
73973;PMS5003;62336;-26.094;27.994;2023-07-13T15:26:29;18;18;
73973;PMS5003;62336;-26.094;27.994;2023-07-13T15:28:55;21;19;
73973;PMS5003;62336;-26.094;27.994;2023-07-13T15:31:22;17;14;
73973;PMS5003;62336;-26.094;27.994;2023-07-13T15:33:45;19;18;
73973;PMS5003;62336;-26.094;27.994;2023-07-13T15:36:11;24;23;
73973;PMS5003;62336;-26.094;27.994;2023-07-13T15:38:36;52;50;
73973;PMS5003;62336;-26.094;27.994;2023-07-13T15:41:04;53;49;
73973;PMS5003;62336;-26.094;27.994;2023-07-13T15:43:28;25;24;
73973;PMS5003;62336;-26.094;27.994;2023-07-13T15:45:52;26;25;
73973;PMS5003;62336;-26.094;27.994;2023-07-13T15:48:18;24;24;
73973;PMS5003;62336;-26.094;27.994;2023-07-13T15:50:44;28;27;
73973;PMS5003;62336;-26.094;27.994;2023-07-13T15:53:09;22;21;